PAMR/MRI METAR and TAF weather

Enter ICAO airport designator
Station Type Date Time Source
PAMR METAR 2020/04/08 21:53 UTC NOAA

PAMR 082153Z 19005KT 10SM CLR 00/M13 A2978 RMK AO2 SLP086 T00001133 $


Station Type Date Time Source
PAMR Decoded METAR 2020/04/08 21:53 UTC NOAA

ANCHORAGE MERRILL FIELD, AK, United States (PAMR) 61-13N 149-51W
Apr 08, 2020 - 05:53 PM EDT / 2020.04.08 2153 UTC
Wind: from the S (190 degrees) at 6 MPH (5 KT):0
Visibility: 10 mile(s):0
Sky conditions: clear
Temperature: 32.0 F (0.0 C)
Windchill: 26 F (-3 C):1
Dew Point: 8.1 F (-13.3 C)
Relative Humidity: 35%
Pressure (altimeter): 29.78 in. Hg (1008 hPa)
ob: PAMR 082153Z 19005KT 10SM CLR 00/M13 A2978 RMK AO2 SLP086 T00001133
cycle: 22

Station Type Date Time Source
PAMR TAF UTC NOAA

Error!

Example: see airport list